Time;durP1;ratioP1;P1;durP2;ratioP2;P2;SDS_P1;SDS_P2;PMS_P1;PMS_P2;Temp;Humidity;BMP_temperature;BMP_pressure;BME280_temperature;BME280_humidity;BME280_pressure;Samples;Min_cycle;Max_cycle;Signal;HPM_P1;HPM_P2
2022/11/01 00:00:05;;;;;;;;;;;19.80;96.10;;;;;;5176290;27;19929;-65
2022/11/01 00:02:31;;;;;;;;;;;19.70;95.90;;;;;;5139279;27;19956;-66
2022/11/01 00:04:56;;;;;;;;;;;19.80;96.00;;;;;;5146031;27;20371;-65
2022/11/01 00:07:22;;;;;;;;;;;19.70;96.10;;;;;;5172416;27;19927;-68
2022/11/01 00:09:48;;;;;;;;;;;20.00;96.00;;;;;;5161236;27;19927;-65
2022/11/01 00:12:13;;;;;;;;;;;19.80;96.00;;;;;;5156370;27;19923;-65
2022/11/01 00:14:39;;;;;;;;;;;19.70;95.90;;;;;;5157829;27;19944;-65
2022/11/01 00:17:05;;;;;;;;;;;19.90;96.10;;;;;;5157729;27;19964;-65
2022/11/01 00:19:30;;;;;;;;;;;19.80;96.00;;;;;;5158014;27;20018;-65
2022/11/01 00:21:56;;;;;;;;;;;19.50;95.90;;;;;;5152792;27;19931;-65
2022/11/01 00:24:21;;;;;;;;;;;19.60;95.90;;;;;;5138099;27;19927;-68
2022/11/01 00:26:47;;;;;;;;;;;19.50;95.80;;;;;;5120001;27;19944;-65
2022/11/01 00:29:13;;;;;;;;;;;19.50;95.90;;;;;;5136799;27;20024;-65
2022/11/01 00:31:38;;;;;;;;;;;19.90;96.00;;;;;;5137412;27;19923;-65
2022/11/01 00:34:05;;;;;;;;;;;19.70;96.00;;;;;;5136981;27;19924;-65
2022/11/01 00:36:31;;;;;;;;;;;19.70;96.10;;;;;;5119702;27;19963;-65
2022/11/01 00:38:57;;;;;;;;;;;19.90;96.20;;;;;;5119538;27;19923;-65
2022/11/01 00:41:23;;;;;;;;;;;19.80;96.10;;;;;;5144848;27;19930;-66
2022/11/01 00:43:48;;;;;;;;;;;19.90;96.20;;;;;;5156280;27;19923;-64
2022/11/01 00:46:14;;;;;;;;;;;19.70;96.10;;;;;;5157211;27;19945;-65
2022/11/01 00:48:40;;;;;;;;;;;19.90;96.10;;;;;;5157169;27;19923;-66
2022/11/01 00:51:05;;;;;;;;;;;19.90;96.00;;;;;;5157028;27;19929;-65
2022/11/01 00:53:31;;;;;;;;;;;19.80;95.90;;;;;;5146492;27;19948;-65
2022/11/01 00:56:00;;;;;;;;;;;20.00;95.80;;;;;;5119110;27;20428;-65
2022/11/01 00:58:26;;;;;;;;;;;19.80;95.30;;;;;;5121346;27;19924;-65
2022/11/01 01:00:51;;;;;;;;;;;19.80;95.80;;;;;;5142841;27;20064;-66
2022/11/01 01:03:17;;;;;;;;;;;19.70;95.80;;;;;;5133138;27;19923;-65
2022/11/01 01:05:43;;;;;;;;;;;19.70;95.80;;;;;;5137315;27;19930;-65
2022/11/01 01:08:08;;;;;;;;;;;19.70;95.70;;;;;;5136014;27;19931;-65
2022/11/01 01:10:34;;;;;;;;;;;19.70;95.80;;;;;;5136754;27;19924;-66
2022/11/01 01:13:00;;;;;;;;;;;20.00;95.90;;;;;;5139601;27;19923;-66
2022/11/01 01:15:25;;;;;;;;;;;19.90;95.80;;;;;;5151358;27;19926;-66
2022/11/01 01:17:51;;;;;;;;;;;19.70;95.90;;;;;;5158119;27;20333;-66
2022/11/01 01:20:19;;;;;;;;;;;19.80;95.90;;;;;;5157760;27;19923;-66
2022/11/01 01:22:44;;;;;;;;;;;19.60;96.00;;;;;;5122052;27;19948;-66
2022/11/01 01:25:10;;;;;;;;;;;19.90;96.10;;;;;;5122389;27;19919;-66
2022/11/01 01:27:36;;;;;;;;;;;19.90;96.10;;;;;;5139100;27;19923;-66
2022/11/01 01:30:02;;;;;;;;;;;19.70;96.00;;;;;;5121499;27;20041;-65
2022/11/01 01:32:28;;;;;;;;;;;19.90;96.20;;;;;;5126272;27;19923;-66
2022/11/01 01:34:53;;;;;;;;;;;19.90;96.00;;;;;;5149709;27;19923;-66
2022/11/01 01:37:19;;;;;;;;;;;19.90;96.10;;;;;;5178593;27;19983;-66
2022/11/01 01:39:45;;;;;;;;;;;19.90;96.10;;;;;;5142352;27;20462;-66
2022/11/01 01:42:13;;;;;;;;;;;20.00;96.10;;;;;;5159311;27;19926;-66
2022/11/01 01:44:45;;;;;;;;;;;20.00;95.60;;;;;;5176315;27;19947;-66
2022/11/01 01:47:17;;;;;;;;;;;19.90;95.60;;;;;;5179026;27;20311;-66
2022/11/01 01:49:43;;;;;;;;;;;19.80;95.60;;;;;;5167768;27;20379;-65
2022/11/01 01:52:08;;;;;;;;;;;19.80;96.20;;;;;;5121429;27;19923;-66
2022/11/01 01:54:34;;;;;;;;;;;19.80;96.00;;;;;;5138541;27;19937;-66
2022/11/01 01:57:00;;;;;;;;;;;19.80;96.10;;;;;;5139357;27;19930;-66
2022/11/01 01:59:25;;;;;;;;;;;19.80;96.00;;;;;;5121379;27;19923;-65
2022/11/01 02:01:51;;;;;;;;;;;20.00;96.10;;;;;;5157235;27;19923;-66
2022/11/01 02:04:18;;;;;;;;;;;20.10;96.00;;;;;;5121284;27;19991;-66
2022/11/01 02:06:44;;;;;;;;;;;19.90;96.10;;;;;;5148821;27;19923;-66
2022/11/01 02:09:09;;;;;;;;;;;19.90;95.90;;;;;;5141738;27;19971;-65
2022/11/01 02:11:35;;;;;;;;;;;19.90;96.00;;;;;;5155074;27;19933;-66
2022/11/01 02:14:01;;;;;;;;;;;20.00;95.80;;;;;;5155346;27;19923;-66
2022/11/01 02:16:26;;;;;;;;;;;19.90;95.90;;;;;;5142737;27;19923;-66
2022/11/01 02:18:52;;;;;;;;;;;20.00;95.90;;;;;;5151124;27;20299;-66
2022/11/01 02:21:17;;;;;;;;;;;20.20;96.00;;;;;;5155338;27;19923;-66
2022/11/01 02:23:50;;;;;;;;;;;19.80;95.90;;;;;;5144676;27;19923;-66
2022/11/01 02:26:15;;;;;;;;;;;19.80;95.40;;;;;;5134411;27;19923;-67
2022/11/01 02:28:41;;;;;;;;;;;19.80;95.90;;;;;;5116822;27;20436;-66
2022/11/01 02:31:19;;;;;;;;;;;19.70;95.80;;;;;;5134343;27;19924;-66
2022/11/01 02:33:48;;;;;;;;;;;19.80;95.40;;;;;;5135495;27;19923;-66
2022/11/01 02:36:15;;;;;;;;;;;20.00;95.40;;;;;;5125497;27;19919;-66
2022/11/01 02:38:51;;;;;;;;;;;19.90;96.00;;;;;;5100470;27;20258;-66
2022/11/01 02:41:17;;;;;;;;;;;20.00;96.00;;;;;;5136237;27;19978;-66
2022/11/01 02:43:45;;;;;;;;;;;20.20;96.00;;;;;;5133858;27;19993;-67
2022/11/01 02:48:55;;;;;;;;;;;20.20;95.50;;;;;;5143327;27;19929;-66
2022/11/01 02:51:21;;;;;;;;;;;19.90;95.80;;;;;;5156278;27;20081;-66
2022/11/01 02:53:47;;;;;;;;;;;20.00;95.90;;;;;;5156246;27;19970;-66
2022/11/01 02:56:13;;;;;;;;;;;20.00;95.80;;;;;;5148222;27;19927;-66
2022/11/01 02:58:38;;;;;;;;;;;19.70;95.80;;;;;;5151749;27;19919;-66
2022/11/01 03:01:13;;;;;;;;;;;19.90;95.80;;;;;;5154967;27;19970;-66
2022/11/01 03:03:39;;;;;;;;;;;20.00;95.90;;;;;;5154777;27;20410;-66
2022/11/01 03:06:07;;;;;;;;;;;19.90;95.90;;;;;;5153716;27;19978;-66
2022/11/01 03:08:43;;;;;;;;;;;19.90;95.90;;;;;;5156036;27;19923;-66
2022/11/01 03:11:19;;;;;;;;;;;19.90;95.40;;;;;;5154538;27;19923;-66
2022/11/01 03:13:47;;;;;;;;;;;19.90;95.40;;;;;;5152153;27;19930;-66
2022/11/01 03:16:21;;;;;;;;;;;19.90;96.00;;;;;;5116281;27;19949;-67
2022/11/01 03:19:03;;;;;;;;;;;20.10;95.50;;;;;;5150034;27;20280;-66
2022/11/01 03:21:31;;;;;;;;;;;20.20;95.50;;;;;;5153826;27;19923;-66
2022/11/01 03:24:00;;;;;;;;;;;20.10;96.10;;;;;;5147808;27;19927;-66
2022/11/01 03:26:26;;;;;;;;;;;20.00;96.00;;;;;;5116453;27;20002;-66
2022/11/01 03:28:56;;;;;;;;;;;20.10;95.90;;;;;;5133371;27;19982;-66
2022/11/01 03:31:24;;;;;;;;;;;19.80;95.90;;;;;;5123944;27;19927;-66
2022/11/01 03:33:51;;;;;;;;;;;20.00;95.90;;;;;;5138080;27;19927;-67
2022/11/01 03:36:17;;;;;;;;;;;19.80;95.90;;;;;;5120193;27;19923;-66
2022/11/01 03:38:44;;;;;;;;;;;20.00;95.80;;;;;;5134280;27;20380;-66
2022/11/01 03:41:10;;;;;;;;;;;19.80;95.80;;;;;;5138040;27;19924;-66
2022/11/01 03:43:36;;;;;;;;;;;20.10;95.80;;;;;;5120451;27;20057;-66
2022/11/01 03:46:01;;;;;;;;;;;20.20;95.70;;;;;;5120116;27;20018;-67
2022/11/01 03:48:27;;;;;;;;;;;19.90;95.70;;;;;;5138431;27;19924;-66
2022/11/01 03:50:55;;;;;;;;;;;20.10;95.70;;;;;;5137415;27;20031;-66
2022/11/01 03:53:20;;;;;;;;;;;19.70;95.60;;;;;;5120997;27;19923;-65
2022/11/01 03:55:46;;;;;;;;;;;19.90;95.70;;;;;;5137507;27;20326;-66
2022/11/01 03:58:11;;;;;;;;;;;20.20;95.70;;;;;;5142000;27;19934;-66
2022/11/01 04:00:41;;;;;;;;;;;19.90;95.60;;;;;;5157677;27;19972;-66
2022/11/01 04:03:07;;;;;;;;;;;20.00;95.70;;;;;;5159647;27;19923;-66
2022/11/01 04:05:33;;;;;;;;;;;19.80;95.60;;;;;;5149196;27;19988;-66
2022/11/01 04:07:58;;;;;;;;;;;20.10;95.60;;;;;;5136980;27;19927;-68
2022/11/01 04:10:24;;;;;;;;;;;20.00;95.60;;;;;;5159063;27;19975;-68
2022/11/01 04:12:50;;;;;;;;;;;19.80;95.60;;;;;;5177239;27;19927;-66
2022/11/01 04:21:03;;;;;;;;;;;19.90;95.00;;;;;;5158930;27;19929;-66
2022/11/01 04:23:29;;;;;;;;;;;20.00;95.00;;;;;;5144619;27;19978;-66
2022/11/01 04:25:54;;;;;;;;;;;19.80;95.50;;;;;;5140623;27;20368;-68
2022/11/01 04:28:20;;;;;;;;;;;20.20;95.60;;;;;;5140278;27;19930;-66
2022/11/01 04:30:46;;;;;;;;;;;20.10;95.60;;;;;;5156096;27;19970;-66
2022/11/01 04:33:12;;;;;;;;;;;20.00;95.50;;;;;;5143688;27;19936;-66
2022/11/01 04:35:37;;;;;;;;;;;20.00;95.50;;;;;;5161216;27;19967;-66
2022/11/01 04:38:03;;;;;;;;;;;19.80;95.40;;;;;;5179843;27;20368;-66
2022/11/01 04:40:29;;;;;;;;;;;20.00;95.50;;;;;;5143660;27;19923;-66
2022/11/01 04:42:54;;;;;;;;;;;19.80;95.40;;;;;;5140165;27;19923;-67
2022/11/01 04:45:20;;;;;;;;;;;19.90;95.40;;;;;;5158797;27;19924;-65
2022/11/01 04:47:52;;;;;;;;;;;19.70;95.40;;;;;;5158678;27;20368;-66
2022/11/01 04:50:20;;;;;;;;;;;20.10;95.10;;;;;;5164049;27;19926;-66
2022/11/01 04:52:49;;;;;;;;;;;20.00;94.90;;;;;;5160856;27;19930;-66
2022/11/01 04:55:14;;;;;;;;;;;20.00;94.90;;;;;;5179476;27;19923;-66
2022/11/01 04:57:40;;;;;;;;;;;19.90;95.40;;;;;;5163167;27;19927;-66
2022/11/01 05:00:06;;;;;;;;;;;19.70;95.40;;;;;;5178344;27;19927;-65
2022/11/01 05:02:32;;;;;;;;;;;19.70;95.30;;;;;;5179032;27;19922;-66
2022/11/01 05:04:57;;;;;;;;;;;19.70;95.30;;;;;;5179243;27;19929;-66
2022/11/01 05:07:23;;;;;;;;;;;19.90;95.40;;;;;;5176593;27;20003;-66
2022/11/01 05:09:49;;;;;;;;;;;19.80;95.40;;;;;;5159277;27;19923;-66
2022/11/01 05:12:14;;;;;;;;;;;19.70;95.30;;;;;;5139599;27;19923;-66
2022/11/01 05:14:40;;;;;;;;;;;20.00;95.30;;;;;;5157372;27;19922;-66
2022/11/01 05:17:05;;;;;;;;;;;19.90;95.40;;;;;;5142814;27;19996;-66
2022/11/01 05:19:31;;;;;;;;;;;20.20;95.50;;;;;;5178991;27;19980;-67
2022/11/01 05:21:58;;;;;;;;;;;20.00;95.40;;;;;;5145832;27;19962;-66
2022/11/01 05:24:24;;;;;;;;;;;19.80;95.40;;;;;;5139204;27;19924;-66
2022/11/01 05:26:49;;;;;;;;;;;20.00;95.40;;;;;;5157957;27;19923;-66
2022/11/01 05:29:15;;;;;;;;;;;19.90;95.40;;;;;;5157625;27;19922;-66
2022/11/01 05:31:40;;;;;;;;;;;19.80;95.40;;;;;;5174414;27;19923;-66
2022/11/01 05:34:06;;;;;;;;;;;20.00;95.40;;;;;;5157990;27;19927;-66
2022/11/01 05:36:32;;;;;;;;;;;20.10;95.50;;;;;;5178627;27;19929;-66
2022/11/01 05:38:57;;;;;;;;;;;20.20;95.50;;;;;;5159652;27;19945;-65
2022/11/01 05:41:23;;;;;;;;;;;20.00;95.50;;;;;;5159190;27;19980;-66
2022/11/01 05:43:49;;;;;;;;;;;19.70;95.50;;;;;;5137557;27;19923;-65
2022/11/01 05:46:15;;;;;;;;;;;19.80;95.40;;;;;;5138799;27;19966;-65
2022/11/01 05:48:40;;;;;;;;;;;20.10;95.50;;;;;;5157320;27;19962;-66
2022/11/01 05:51:06;;;;;;;;;;;19.80;95.40;;;;;;5142266;27;19928;-66
2022/11/01 05:53:32;;;;;;;;;;;20.10;95.60;;;;;;5138202;27;19926;-66
2022/11/01 05:55:58;;;;;;;;;;;19.80;95.40;;;;;;5138885;27;19937;-66
2022/11/01 05:58:24;;;;;;;;;;;19.80;95.50;;;;;;5157103;27;19959;-66
2022/11/01 06:00:55;;;;;;;;;;;19.80;95.50;;;;;;5138511;27;19945;-66
2022/11/01 06:03:21;;;;;;;;;;;19.90;95.50;;;;;;5151441;27;19923;-66
2022/11/01 06:05:47;;;;;;;;;;;19.90;95.50;;;;;;5122737;27;19930;-66
2022/11/01 06:08:12;;;;;;;;;;;19.70;95.50;;;;;;5138368;27;19923;-66
2022/11/01 06:10:38;;;;;;;;;;;20.00;95.50;;;;;;5121097;27;20311;-66
2022/11/01 06:13:04;;;;;;;;;;;19.90;95.50;;;;;;5142332;27;20296;-66
2022/11/01 06:15:29;;;;;;;;;;;20.00;95.40;;;;;;5138232;27;19938;-66
2022/11/01 06:17:56;;;;;;;;;;;20.10;95.50;;;;;;5138413;27;19946;-66
2022/11/01 06:20:21;;;;;;;;;;;19.90;95.60;;;;;;5138526;27;19927;-66
2022/11/01 06:22:47;;;;;;;;;;;19.70;95.50;;;;;;5165529;27;20059;-66
2022/11/01 06:25:13;;;;;;;;;;;19.60;95.50;;;;;;5137928;27;20419;-65
2022/11/01 06:27:38;;;;;;;;;;;19.90;95.60;;;;;;5137902;27;19923;-66
2022/11/01 06:30:04;;;;;;;;;;;19.90;95.60;;;;;;5138084;27;20276;-66
2022/11/01 06:32:30;;;;;;;;;;;20.00;95.50;;;;;;5149593;27;20290;-65
2022/11/01 06:34:55;;;;;;;;;;;19.80;95.60;;;;;;5177462;27;19930;-66
2022/11/01 06:37:21;;;;;;;;;;;19.90;95.60;;;;;;5177402;27;19926;-66
2022/11/01 06:39:46;;;;;;;;;;;19.70;95.90;;;;;;5157789;27;20019;-67
2022/11/01 06:42:12;;;;;;;;;;;19.70;95.60;;;;;;5142988;27;20413;-66
2022/11/01 06:44:38;;;;;;;;;;;19.70;95.60;;;;;;5141121;27;19929;-66
2022/11/01 06:47:03;;;;;;;;;;;19.70;95.60;;;;;;5158325;27;20005;-66
2022/11/01 06:49:29;;;;;;;;;;;19.80;95.60;;;;;;5158274;27;19945;-66
2022/11/01 06:51:55;;;;;;;;;;;19.60;95.50;;;;;;5142902;27;19923;-66
2022/11/01 06:54:20;;;;;;;;;;;19.60;95.50;;;;;;5141407;27;20014;-66
2022/11/01 06:56:46;;;;;;;;;;;19.60;95.60;;;;;;5162480;27;19927;-66
2022/11/01 06:59:12;;;;;;;;;;;19.50;95.50;;;;;;5156154;27;19927;-66
2022/11/01 07:01:37;;;;;;;;;;;19.60;95.40;;;;;;5137304;27;19923;-66
2022/11/01 07:04:03;;;;;;;;;;;20.00;95.50;;;;;;5155819;27;19923;-65
2022/11/01 07:06:29;;;;;;;;;;;19.90;95.40;;;;;;5156334;27;19966;-66
2022/11/01 07:08:56;;;;;;;;;;;19.50;95.40;;;;;;5137193;27;20392;-66
2022/11/01 07:11:22;;;;;;;;;;;19.60;95.40;;;;;;5155706;27;19927;-66
2022/11/01 07:13:47;;;;;;;;;;;19.70;95.10;;;;;;5162820;27;19923;-67
2022/11/01 07:16:13;;;;;;;;;;;19.90;95.20;;;;;;5137427;27;20368;-66
2022/11/01 07:18:38;;;;;;;;;;;19.80;95.10;;;;;;5155844;27;20333;-68
2022/11/01 07:21:05;;;;;;;;;;;19.60;94.90;;;;;;5136979;27;19948;-68
2022/11/01 07:23:30;;;;;;;;;;;19.30;94.80;;;;;;5137870;27;19970;-67
2022/11/01 07:25:56;;;;;;;;;;;20.00;95.30;;;;;;5155714;27;19966;-68
2022/11/01 07:28:22;;;;;;;;;;;19.60;94.70;;;;;;5166002;27;20029;-70
2022/11/01 07:30:51;;;;;;;;;;;19.70;94.80;;;;;;5147755;27;19923;-68
2022/11/01 07:33:17;;;;;;;;;;;20.00;94.90;;;;;;5155797;27;19923;-67
2022/11/01 07:35:43;;;;;;;;;;;19.80;94.80;;;;;;5157593;27;19923;-66
2022/11/01 07:38:09;;;;;;;;;;;19.80;94.70;;;;;;5157592;27;19975;-68
2022/11/01 07:40:35;;;;;;;;;;;19.90;94.70;;;;;;5175071;27;19923;-67
2022/11/01 07:43:01;;;;;;;;;;;19.50;94.50;;;;;;5157750;27;19963;-66
2022/11/01 07:45:27;;;;;;;;;;;19.80;94.60;;;;;;5146555;27;19930;-66
2022/11/01 07:47:52;;;;;;;;;;;19.60;94.60;;;;;;5142277;27;19923;-67
2022/11/01 07:50:18;;;;;;;;;;;19.50;94.40;;;;;;5119812;27;19923;-67
2022/11/01 07:52:44;;;;;;;;;;;19.50;94.20;;;;;;5154323;27;20027;-67
2022/11/01 07:55:09;;;;;;;;;;;19.70;94.20;;;;;;5120020;27;19923;-67
2022/11/01 07:57:39;;;;;;;;;;;19.80;94.20;;;;;;5152817;27;20355;-67
2022/11/01 08:00:05;;;;;;;;;;;19.50;93.60;;;;;;5136463;27;20434;-70
2022/11/01 08:02:30;;;;;;;;;;;19.70;94.00;;;;;;5134769;27;20372;-67
2022/11/01 08:04:56;;;;;;;;;;;19.70;94.10;;;;;;5157404;27;19923;-66
2022/11/01 08:07:22;;;;;;;;;;;19.60;93.90;;;;;;5140435;27;19961;-68
2022/11/01 08:09:48;;;;;;;;;;;19.50;93.90;;;;;;5138346;27;20010;-69
2022/11/01 08:12:13;;;;;;;;;;;19.90;93.70;;;;;;5129621;27;20006;-69
2022/11/01 08:14:39;;;;;;;;;;;19.80;93.60;;;;;;5143560;27;19923;-67
2022/11/01 08:17:04;;;;;;;;;;;19.90;93.60;;;;;;5108210;27;19953;-69
2022/11/01 08:19:30;;;;;;;;;;;19.90;93.60;;;;;;5132873;27;19919;-69
2022/11/01 08:21:56;;;;;;;;;;;19.70;93.40;;;;;;5136944;27;19927;-69
2022/11/01 08:24:22;;;;;;;;;;;19.80;93.20;;;;;;5137781;27;20328;-70
2022/11/01 08:26:48;;;;;;;;;;;19.70;92.90;;;;;;5141225;27;20010;-69
2022/11/01 08:29:13;;;;;;;;;;;19.90;92.80;;;;;;5136430;27;19930;-68
2022/11/01 08:31:40;;;;;;;;;;;20.00;92.70;;;;;;5122832;27;19923;-70
2022/11/01 08:34:05;;;;;;;;;;;19.90;92.70;;;;;;5130460;27;19930;-70
2022/11/01 08:36:32;;;;;;;;;;;19.90;92.70;;;;;;5115373;27;19968;-69
2022/11/01 08:38:58;;;;;;;;;;;19.90;92.60;;;;;;5158546;27;19930;-69
2022/11/01 08:41:24;;;;;;;;;;;20.00;92.80;;;;;;5128230;27;19922;-70
2022/11/01 08:43:50;;;;;;;;;;;20.10;92.40;;;;;;5159395;27;20014;-70
2022/11/01 08:46:16;;;;;;;;;;;19.70;92.20;;;;;;5139376;27;19948;-70
2022/11/01 08:48:41;;;;;;;;;;;20.10;92.50;;;;;;5139851;27;20330;-69
2022/11/01 08:51:07;;;;;;;;;;;20.20;92.50;;;;;;5174839;27;20268;-66
2022/11/01 08:53:32;;;;;;;;;;;19.60;91.80;;;;;;5178903;27;20019;-67
2022/11/01 08:55:58;;;;;;;;;;;19.60;92.00;;;;;;5173109;27;19922;-66
2022/11/01 08:58:24;;;;;;;;;;;19.80;92.00;;;;;;5178209;27;20317;-67
2022/11/01 09:00:49;;;;;;;;;;;19.80;92.00;;;;;;5160479;27;19923;-66
2022/11/01 09:03:15;;;;;;;;;;;19.80;92.00;;;;;;5161778;27;19926;-66
2022/11/01 09:05:40;;;;;;;;;;;19.70;92.10;;;;;;5139901;27;19927;-67
2022/11/01 09:08:06;;;;;;;;;;;19.80;91.90;;;;;;5158329;27;20265;-67
2022/11/01 09:10:32;;;;;;;;;;;19.80;92.10;;;;;;5139455;27;19923;-68
2022/11/01 09:12:58;;;;;;;;;;;19.70;92.00;;;;;;5149524;27;19923;-67
2022/11/01 09:15:23;;;;;;;;;;;19.70;92.10;;;;;;5160282;27;19922;-66
2022/11/01 09:17:49;;;;;;;;;;;19.70;91.70;;;;;;5143022;27;19927;-67
2022/11/01 09:20:15;;;;;;;;;;;19.70;91.60;;;;;;5178720;27;20384;-66
2022/11/01 09:22:40;;;;;;;;;;;19.70;91.50;;;;;;5154324;27;19959;-66
2022/11/01 09:25:06;;;;;;;;;;;19.70;91.80;;;;;;5178805;27;19923;-66
2022/11/01 09:27:32;;;;;;;;;;;19.60;91.20;;;;;;5156864;27;19923;-66
2022/11/01 09:29:57;;;;;;;;;;;19.80;91.40;;;;;;5138927;27;19949;-66
2022/11/01 09:32:25;;;;;;;;;;;19.90;91.50;;;;;;5121537;27;19924;-69
2022/11/01 09:34:51;;;;;;;;;;;19.70;91.40;;;;;;5104859;27;19956;-66
2022/11/01 09:37:17;;;;;;;;;;;19.90;91.20;;;;;;5138316;27;19923;-66
2022/11/01 09:39:42;;;;;;;;;;;19.80;91.00;;;;;;5122617;27;20033;-66
2022/11/01 09:42:27;;;;;;;;;;;19.90;91.00;;;;;;5138826;27;19923;-66
2022/11/01 09:44:54;;;;;;;;;;;19.80;90.50;;;;;;5149704;27;19950;-66
2022/11/01 09:47:20;;;;;;;;;;;19.80;91.10;;;;;;5121755;27;20324;-67
2022/11/01 09:49:47;;;;;;;;;;;19.50;91.00;;;;;;5138426;27;19923;-68
2022/11/01 09:52:20;;;;;;;;;;;19.60;90.90;;;;;;5157549;27;20340;-68
2022/11/01 09:54:46;;;;;;;;;;;19.80;90.10;;;;;;5142405;27;19967;-67
2022/11/01 09:57:11;;;;;;;;;;;19.70;90.60;;;;;;5153228;27;19927;-67
2022/11/01 09:59:43;;;;;;;;;;;19.70;90.40;;;;;;5143944;27;19923;-69
2022/11/01 10:02:14;;;;;;;;;;;19.70;89.70;;;;;;5117362;27;19923;-66
2022/11/01 10:04:49;;;;;;;;;;;20.10;89.70;;;;;;5134858;27;20019;-68
2022/11/01 10:07:20;;;;;;;;;;;19.80;89.40;;;;;;5134499;27;20014;-69
2022/11/01 10:09:46;;;;;;;;;;;20.10;89.40;;;;;;5116015;27;20060;-69
2022/11/01 10:12:18;;;;;;;;;;;19.90;90.00;;;;;;5133966;27;20006;-67
2022/11/01 10:14:53;;;;;;;;;;;20.00;89.20;;;;;;5134502;27;20064;-67
2022/11/01 10:17:39;;;;;;;;;;;20.10;88.90;;;;;;5134436;27;19923;-67
2022/11/01 10:20:05;;;;;;;;;;;20.40;90.10;;;;;;5133055;27;19930;-68
2022/11/01 10:22:31;;;;;;;;;;;20.20;89.50;;;;;;5125718;27;19920;-68
2022/11/01 10:24:57;;;;;;;;;;;20.10;90.00;;;;;;5096633;28;19923;-69
2022/11/01 10:27:41;;;;;;;;;;;20.20;89.80;;;;;;5097258;28;20388;-69
2022/11/01 10:30:10;;;;;;;;;;;18.40;87.40;;;;;;5122730;27;20018;-69
2022/11/01 10:32:41;;;;;;;;;;;20.50;88.50;;;;;;5135698;27;20334;-69
2022/11/01 10:35:27;;;;;;;;;;;20.10;88.10;;;;;;5134442;27;19959;-69
2022/11/01 10:37:56;;;;;;;;;;;20.30;89.50;;;;;;5115125;27;19927;-67
2022/11/01 10:40:29;;;;;;;;;;;20.50;88.10;;;;;;5119817;27;19927;-67
2022/11/01 10:42:54;;;;;;;;;;;20.40;88.00;;;;;;5131758;27;19967;-67
2022/11/01 10:45:22;;;;;;;;;;;20.30;88.90;;;;;;5116056;27;20019;-67
2022/11/01 10:47:48;;;;;;;;;;;20.50;89.00;;;;;;5094727;28;19923;-70
2022/11/01 10:50:16;;;;;;;;;;;20.30;89.10;;;;;;5098583;28;19979;-68
2022/11/01 10:52:45;;;;;;;;;;;20.50;88.90;;;;;;5113317;27;20305;-68
2022/11/01 10:55:11;;;;;;;;;;;20.40;87.60;;;;;;5117260;27;20147;-68
2022/11/01 10:57:38;;;;;;;;;;;20.40;89.00;;;;;;5099834;27;20018;-69
2022/11/01 11:00:05;;;;;;;;;;;20.60;89.10;;;;;;5099886;27;20365;-68
2022/11/01 11:02:34;;;;;;;;;;;20.40;88.70;;;;;;5117218;27;19923;-67
2022/11/01 11:05:00;;;;;;;;;;;20.40;87.60;;;;;;5116778;27;19930;-67
2022/11/01 11:07:28;;;;;;;;;;;20.60;88.60;;;;;;5117026;27;20006;-68
2022/11/01 11:09:54;;;;;;;;;;;20.90;89.30;;;;;;5116112;27;19923;-68
2022/11/01 11:12:20;;;;;;;;;;;20.60;89.50;;;;;;5132993;27;19923;-68
2022/11/01 11:14:46;;;;;;;;;;;20.50;88.90;;;;;;5133753;27;19923;-68
2022/11/01 11:17:19;;;;;;;;;;;20.40;88.80;;;;;;5116924;27;19981;-69
2022/11/01 11:19:45;;;;;;;;;;;20.50;87.60;;;;;;5117385;27;19924;-69
2022/11/01 11:22:11;;;;;;;;;;;20.30;88.50;;;;;;5110741;28;19928;-68
2022/11/01 11:24:37;;;;;;;;;;;20.20;88.40;;;;;;5096442;28;20430;-68
2022/11/01 11:27:03;;;;;;;;;;;20.00;88.60;;;;;;5128516;27;20009;-69
2022/11/01 11:29:32;;;;;;;;;;;20.40;89.50;;;;;;5112826;28;20040;-68
2022/11/01 11:31:58;;;;;;;;;;;20.30;87.50;;;;;;5112920;28;20018;-67
2022/11/01 11:34:31;;;;;;;;;;;20.40;88.90;;;;;;5096536;28;20065;-67
2022/11/01 11:36:56;;;;;;;;;;;20.10;87.70;;;;;;5106802;28;19930;-67
2022/11/01 11:39:23;;;;;;;;;;;19.50;88.70;;;;;;5095996;28;19924;-67
2022/11/01 11:41:48;;;;;;;;;;;20.40;89.40;;;;;;5112675;28;19924;-68
2022/11/01 11:44:35;;;;;;;;;;;20.40;89.00;;;;;;5104702;28;20053;-67
2022/11/01 11:47:02;;;;;;;;;;;20.00;87.80;;;;;;5109792;28;19934;-68
2022/11/01 11:49:27;;;;;;;;;;;20.20;89.10;;;;;;5116690;28;19923;-68
2022/11/01 11:51:53;;;;;;;;;;;20.50;89.40;;;;;;5133338;28;19946;-68
2022/11/01 11:54:19;;;;;;;;;;;20.50;89.60;;;;;;5116149;28;19931;-68
2022/11/01 11:56:45;;;;;;;;;;;19.80;88.60;;;;;;5132655;28;19923;-68
2022/11/01 11:59:17;;;;;;;;;;;20.60;89.90;;;;;;5118159;27;19927;-67
2022/11/01 12:01:42;;;;;;;;;;;20.50;89.10;;;;;;5120500;27;19924;-67
2022/11/01 12:04:11;;;;;;;;;;;20.50;88.80;;;;;;5120208;27;20330;-66
2022/11/01 12:06:37;;;;;;;;;;;20.60;88.90;;;;;;5119430;27;19927;-67
2022/11/01 12:09:03;;;;;;;;;;;20.70;89.10;;;;;;5120547;27;20296;-67
2022/11/01 12:11:39;;;;;;;;;;;20.70;88.70;;;;;;5138457;27;19930;-68
2022/11/01 12:14:25;;;;;;;;;;;20.80;87.50;;;;;;5138244;27;19924;-68
2022/11/01 12:16:50;;;;;;;;;;;20.10;88.20;;;;;;5125074;27;20273;-68
2022/11/01 12:19:21;;;;;;;;;;;20.90;88.10;;;;;;5097272;27;19972;-68
2022/11/01 12:21:47;;;;;;;;;;;21.00;86.70;;;;;;5137285;27;20281;-67
2022/11/01 12:24:18;;;;;;;;;;;21.40;88.30;;;;;;5137247;27;19923;-66
2022/11/01 12:26:44;;;;;;;;;;;21.00;86.40;;;;;;5135756;27;19924;-68
2022/11/01 12:29:22;;;;;;;;;;;21.10;88.10;;;;;;5135890;27;20018;-67
2022/11/01 12:31:47;;;;;;;;;;;21.10;86.60;;;;;;5123460;27;19924;-69
2022/11/01 12:34:15;;;;;;;;;;;21.20;88.20;;;;;;5120080;27;20398;-67
2022/11/01 12:36:47;;;;;;;;;;;21.00;88.20;;;;;;5135023;27;19927;-67
2022/11/01 12:39:32;;;;;;;;;;;21.00;88.20;;;;;;5118439;27;19929;-67
2022/11/01 12:41:59;;;;;;;;;;;20.90;87.00;;;;;;5136454;27;19927;-67
2022/11/01 12:44:34;;;;;;;;;;;20.90;88.00;;;;;;5136931;27;20291;-66
2022/11/01 12:47:18;;;;;;;;;;;20.80;86.80;;;;;;5130437;27;20320;-68
2022/11/01 12:49:50;;;;;;;;;;;20.90;87.00;;;;;;5134646;27;20280;-69
2022/11/01 12:52:21;;;;;;;;;;;20.60;86.80;;;;;;5109473;27;19923;-68
2022/11/01 12:54:53;;;;;;;;;;;21.00;88.60;;;;;;5119583;27;20295;-67
2022/11/01 12:57:19;;;;;;;;;;;20.60;87.30;;;;;;5117665;27;19923;-67
2022/11/01 12:59:45;;;;;;;;;;;20.60;88.50;;;;;;5114357;28;19924;-66
2022/11/01 13:02:30;;;;;;;;;;;20.60;88.50;;;;;;5108433;27;19996;-66
2022/11/01 13:04:56;;;;;;;;;;;20.90;87.50;;;;;;5129376;27;19929;-66
2022/11/01 13:07:25;;;;;;;;;;;20.60;88.60;;;;;;5117541;27;19923;-66
2022/11/01 13:09:51;;;;;;;;;;;20.40;88.90;;;;;;5114141;27;19939;-66
2022/11/01 13:12:35;;;;;;;;;;;20.60;89.00;;;;;;5130582;27;20300;-68
2022/11/01 13:15:19;;;;;;;;;;;20.40;87.80;;;;;;5118563;27;19928;-68
2022/11/01 13:17:45;;;;;;;;;;;20.30;87.70;;;;;;5120692;27;19930;-66
2022/11/01 13:20:23;;;;;;;;;;;20.50;89.10;;;;;;5121567;27;20396;-66
2022/11/01 13:22:54;;;;;;;;;;;20.10;87.60;;;;;;5127863;27;19973;-66
2022/11/01 13:25:30;;;;;;;;;;;20.60;87.80;;;;;;5131396;27;19924;-69
2022/11/01 13:27:58;;;;;;;;;;;20.50;87.90;;;;;;5135543;27;20288;-68
2022/11/01 13:30:24;;;;;;;;;;;20.20;87.70;;;;;;5135817;27;20291;-66
2022/11/01 13:33:02;;;;;;;;;;;20.20;88.90;;;;;;5097775;28;19924;-66
2022/11/01 13:35:35;;;;;;;;;;;20.50;88.20;;;;;;5133028;27;20017;-66
2022/11/01 13:38:16;;;;;;;;;;;20.50;88.10;;;;;;5098103;28;19927;-65
2022/11/01 13:40:51;;;;;;;;;;;20.70;87.70;;;;;;5114822;28;19927;-67
2022/11/01 13:43:23;;;;;;;;;;;20.20;87.10;;;;;;5120936;27;19930;-68
2022/11/01 13:45:52;;;;;;;;;;;20.10;87.00;;;;;;5135753;27;19930;-66
2022/11/01 13:48:18;;;;;;;;;;;20.20;87.30;;;;;;5135327;27;20384;-67
2022/11/01 13:50:44;;;;;;;;;;;20.00;88.90;;;;;;5134040;27;20018;-65
2022/11/01 13:53:13;;;;;;;;;;;19.60;89.10;;;;;;5135179;27;19930;-66
2022/11/01 13:55:42;;;;;;;;;;;19.90;89.50;;;;;;5131554;27;20010;-66
2022/11/01 13:58:11;;;;;;;;;;;19.80;89.60;;;;;;5113266;27;19962;-69
2022/11/01 14:00:37;;;;;;;;;;;19.90;89.60;;;;;;5122449;27;19980;-65
2022/11/01 14:03:15;;;;;;;;;;;20.00;89.20;;;;;;5121133;27;19919;-65
2022/11/01 14:05:40;;;;;;;;;;;19.70;88.10;;;;;;5132928;27;19932;-68
2022/11/01 14:08:10;;;;;;;;;;;20.20;89.60;;;;;;5133042;27;19919;-68
2022/11/01 14:10:35;;;;;;;;;;;20.00;89.70;;;;;;5132994;27;19930;-67
2022/11/01 14:13:08;;;;;;;;;;;20.20;90.00;;;;;;5120109;27;20315;-68
2022/11/01 14:15:38;;;;;;;;;;;19.90;88.40;;;;;;5115637;27;20392;-67
2022/11/01 14:18:07;;;;;;;;;;;20.00;89.50;;;;;;5111294;27;20368;-67
2022/11/01 14:20:49;;;;;;;;;;;19.80;88.20;;;;;;5117586;27;19931;-67
2022/11/01 14:23:27;;;;;;;;;;;20.00;88.40;;;;;;5113600;28;20018;-67
2022/11/01 14:26:11;;;;;;;;;;;20.00;88.40;;;;;;5111415;27;19924;-67